sensor_id;sensor_type;location;lat;lon;timestamp;temperature;humidity
4651;DHT22;2338;49.602;8.722;2024-03-02T00:02:31;5.50;99.90
4651;DHT22;2338;49.602;8.722;2024-03-02T00:05:18;5.60;99.90
4651;DHT22;2338;49.602;8.722;2024-03-02T00:08:07;5.50;99.90
4651;DHT22;2338;49.602;8.722;2024-03-02T00:10:57;5.50;99.90
4651;DHT22;2338;49.602;8.722;2024-03-02T00:13:43;5.40;99.90
4651;DHT22;2338;49.602;8.722;2024-03-02T00:16:30;5.40;99.90
4651;DHT22;2338;49.602;8.722;2024-03-02T00:19:16;5.40;99.90
4651;DHT22;2338;49.602;8.722;2024-03-02T00:22:02;5.40;99.90
4651;DHT22;2338;49.602;8.722;2024-03-02T00:24:50;5.30;99.90
4651;DHT22;2338;49.602;8.722;2024-03-02T00:27:35;5.40;99.90
4651;DHT22;2338;49.602;8.722;2024-03-02T00:30:50;5.40;99.90
4651;DHT22;2338;49.602;8.722;2024-03-02T00:33:39;5.40;99.90
4651;DHT22;2338;49.602;8.722;2024-03-02T00:36:26;5.40;99.90
4651;DHT22;2338;49.602;8.722;2024-03-02T00:39:13;5.40;99.90
4651;DHT22;2338;49.602;8.722;2024-03-02T00:42:01;5.40;99.90
4651;DHT22;2338;49.602;8.722;2024-03-02T00:44:47;5.40;99.90
4651;DHT22;2338;49.602;8.722;2024-03-02T00:47:37;5.40;99.90
4651;DHT22;2338;49.602;8.722;2024-03-02T00:50:23;5.40;99.90
4651;DHT22;2338;49.602;8.722;2024-03-02T00:53:10;5.30;99.90
4651;DHT22;2338;49.602;8.722;2024-03-02T00:55:57;5.30;99.90
4651;DHT22;2338;49.602;8.722;2024-03-02T00:58:44;5.20;99.90
4651;DHT22;2338;49.602;8.722;2024-03-02T01:01:30;5.20;99.90
4651;DHT22;2338;49.602;8.722;2024-03-02T01:04:16;5.10;99.90
4651;DHT22;2338;49.602;8.722;2024-03-02T01:07:01;5.10;99.90
4651;DHT22;2338;49.602;8.722;2024-03-02T01:09:47;5.10;99.90
4651;DHT22;2338;49.602;8.722;2024-03-02T01:12:33;5.20;99.90
4651;DHT22;2338;49.602;8.722;2024-03-02T01:15:20;5.10;99.90
4651;DHT22;2338;49.602;8.722;2024-03-02T01:18:06;5.00;99.90
4651;DHT22;2338;49.602;8.722;2024-03-02T01:20:52;5.00;99.90
4651;DHT22;2338;49.602;8.722;2024-03-02T01:23:40;5.00;99.90
4651;DHT22;2338;49.602;8.722;2024-03-02T01:26:26;5.00;99.90
4651;DHT22;2338;49.602;8.722;2024-03-02T01:29:11;5.10;99.90
4651;DHT22;2338;49.602;8.722;2024-03-02T01:31:59;5.00;99.90
4651;DHT22;2338;49.602;8.722;2024-03-02T01:34:44;4.90;99.90
4651;DHT22;2338;49.602;8.722;2024-03-02T01:37:30;4.90;99.90
4651;DHT22;2338;49.602;8.722;2024-03-02T01:40:16;4.80;99.90
4651;DHT22;2338;49.602;8.722;2024-03-02T01:43:01;4.80;99.90
4651;DHT22;2338;49.602;8.722;2024-03-02T01:45:47;4.90;99.90
4651;DHT22;2338;49.602;8.722;2024-03-02T01:48:34;4.80;99.90
4651;DHT22;2338;49.602;8.722;2024-03-02T01:51:19;4.80;99.90
4651;DHT22;2338;49.602;8.722;2024-03-02T01:54:05;4.80;99.90
4651;DHT22;2338;49.602;8.722;2024-03-02T01:56:51;4.80;99.90
4651;DHT22;2338;49.602;8.722;2024-03-02T01:59:37;4.70;99.90
4651;DHT22;2338;49.602;8.722;2024-03-02T02:02:23;4.80;99.90
4651;DHT22;2338;49.602;8.722;2024-03-02T02:05:10;4.70;99.90
4651;DHT22;2338;49.602;8.722;2024-03-02T02:07:55;4.70;99.90
4651;DHT22;2338;49.602;8.722;2024-03-02T02:10:42;4.60;99.90
4651;DHT22;2338;49.602;8.722;2024-03-02T02:13:28;4.60;99.90
4651;DHT22;2338;49.602;8.722;2024-03-02T02:16:14;4.60;99.90
4651;DHT22;2338;49.602;8.722;2024-03-02T02:18:59;4.50;99.90
4651;DHT22;2338;49.602;8.722;2024-03-02T02:21:46;4.50;99.90
4651;DHT22;2338;49.602;8.722;2024-03-02T02:24:32;4.50;99.90
4651;DHT22;2338;49.602;8.722;2024-03-02T02:27:18;4.40;99.90
4651;DHT22;2338;49.602;8.722;2024-03-02T02:30:04;4.40;99.90
4651;DHT22;2338;49.602;8.722;2024-03-02T02:32:50;4.40;99.90
4651;DHT22;2338;49.602;8.722;2024-03-02T02:35:36;4.30;99.90
4651;DHT22;2338;49.602;8.722;2024-03-02T02:38:22;4.40;99.90
4651;DHT22;2338;49.602;8.722;2024-03-02T02:41:08;4.40;99.90
4651;DHT22;2338;49.602;8.722;2024-03-02T02:43:54;4.40;99.90
4651;DHT22;2338;49.602;8.722;2024-03-02T02:46:39;4.40;99.90
4651;DHT22;2338;49.602;8.722;2024-03-02T02:49:25;4.40;99.90
4651;DHT22;2338;49.602;8.722;2024-03-02T02:52:11;4.30;99.90
4651;DHT22;2338;49.602;8.722;2024-03-02T02:54:58;4.30;99.90
4651;DHT22;2338;49.602;8.722;2024-03-02T02:57:43;4.30;99.90
4651;DHT22;2338;49.602;8.722;2024-03-02T03:00:30;4.20;99.90
4651;DHT22;2338;49.602;8.722;2024-03-02T03:03:15;4.10;99.90
4651;DHT22;2338;49.602;8.722;2024-03-02T03:06:01;4.00;99.90
4651;DHT22;2338;49.602;8.722;2024-03-02T03:08:47;4.10;99.90
4651;DHT22;2338;49.602;8.722;2024-03-02T03:11:34;4.00;99.90
4651;DHT22;2338;49.602;8.722;2024-03-02T03:14:20;4.00;99.90
4651;DHT22;2338;49.602;8.722;2024-03-02T03:17:05;4.00;99.90
4651;DHT22;2338;49.602;8.722;2024-03-02T03:19:52;4.00;99.90
4651;DHT22;2338;49.602;8.722;2024-03-02T03:22:38;4.10;99.90
4651;DHT22;2338;49.602;8.722;2024-03-02T03:25:24;4.00;99.90
4651;DHT22;2338;49.602;8.722;2024-03-02T03:28:11;3.90;99.90
4651;DHT22;2338;49.602;8.722;2024-03-02T03:30:56;3.90;99.90
4651;DHT22;2338;49.602;8.722;2024-03-02T03:33:42;3.90;99.90
4651;DHT22;2338;49.602;8.722;2024-03-02T03:36:28;3.90;99.90
4651;DHT22;2338;49.602;8.722;2024-03-02T03:39:13;3.90;99.90
4651;DHT22;2338;49.602;8.722;2024-03-02T03:42:00;3.80;99.90
4651;DHT22;2338;49.602;8.722;2024-03-02T03:44:47;3.80;99.90
4651;DHT22;2338;49.602;8.722;2024-03-02T03:47:32;3.90;99.90
4651;DHT22;2338;49.602;8.722;2024-03-02T03:50:18;3.90;99.90
4651;DHT22;2338;49.602;8.722;2024-03-02T03:53:04;3.80;99.90
4651;DHT22;2338;49.602;8.722;2024-03-02T03:55:49;3.80;99.90
4651;DHT22;2338;49.602;8.722;2024-03-02T03:58:35;3.80;99.90
4651;DHT22;2338;49.602;8.722;2024-03-02T04:01:22;3.80;99.90
4651;DHT22;2338;49.602;8.722;2024-03-02T04:04:08;3.70;99.90
4651;DHT22;2338;49.602;8.722;2024-03-02T04:06:53;3.70;99.90
4651;DHT22;2338;49.602;8.722;2024-03-02T04:09:39;3.70;99.90
4651;DHT22;2338;49.602;8.722;2024-03-02T04:12:25;3.70;99.90
4651;DHT22;2338;49.602;8.722;2024-03-02T04:15:11;3.60;99.90
4651;DHT22;2338;49.602;8.722;2024-03-02T04:17:58;3.70;99.90
4651;DHT22;2338;49.602;8.722;2024-03-02T04:20:43;3.70;99.90
4651;DHT22;2338;49.602;8.722;2024-03-02T04:23:28;3.70;99.90
4651;DHT22;2338;49.602;8.722;2024-03-02T04:26:14;3.70;99.90
4651;DHT22;2338;49.602;8.722;2024-03-02T04:29:03;3.80;99.90
4651;DHT22;2338;49.602;8.722;2024-03-02T04:31:49;3.80;99.90
4651;DHT22;2338;49.602;8.722;2024-03-02T04:34:36;3.80;99.90
4651;DHT22;2338;49.602;8.722;2024-03-02T04:37:21;3.80;99.90
4651;DHT22;2338;49.602;8.722;2024-03-02T04:40:08;3.80;99.90
4651;DHT22;2338;49.602;8.722;2024-03-02T04:42:54;3.70;99.90
4651;DHT22;2338;49.602;8.722;2024-03-02T04:45:40;3.70;99.90
4651;DHT22;2338;49.602;8.722;2024-03-02T04:48:27;3.80;99.90
4651;DHT22;2338;49.602;8.722;2024-03-02T04:51:14;3.80;99.90
4651;DHT22;2338;49.602;8.722;2024-03-02T04:53:59;3.90;99.90
4651;DHT22;2338;49.602;8.722;2024-03-02T04:56:45;3.80;99.90
4651;DHT22;2338;49.602;8.722;2024-03-02T04:59:34;3.80;99.90
4651;DHT22;2338;49.602;8.722;2024-03-02T05:02:19;3.70;99.90
4651;DHT22;2338;49.602;8.722;2024-03-02T05:05:05;3.70;99.90
4651;DHT22;2338;49.602;8.722;2024-03-02T05:07:52;3.60;99.90
4651;DHT22;2338;49.602;8.722;2024-03-02T05:10:38;3.60;99.90
4651;DHT22;2338;49.602;8.722;2024-03-02T05:13:24;3.60;99.90
4651;DHT22;2338;49.602;8.722;2024-03-02T05:16:10;3.70;99.90
4651;DHT22;2338;49.602;8.722;2024-03-02T05:18:55;3.80;99.90
4651;DHT22;2338;49.602;8.722;2024-03-02T05:21:41;3.80;99.90
4651;DHT22;2338;49.602;8.722;2024-03-02T05:24:28;3.70;99.90
4651;DHT22;2338;49.602;8.722;2024-03-02T05:27:14;3.70;99.90
4651;DHT22;2338;49.602;8.722;2024-03-02T05:30:00;3.80;99.90
4651;DHT22;2338;49.602;8.722;2024-03-02T05:32:45;3.70;99.90
4651;DHT22;2338;49.602;8.722;2024-03-02T05:35:31;3.70;99.90
4651;DHT22;2338;49.602;8.722;2024-03-02T05:38:16;3.70;99.90
4651;DHT22;2338;49.602;8.722;2024-03-02T05:41:04;3.70;99.90
4651;DHT22;2338;49.602;8.722;2024-03-02T05:43:49;3.60;99.90
4651;DHT22;2338;49.602;8.722;2024-03-02T05:46:35;3.60;99.90
4651;DHT22;2338;49.602;8.722;2024-03-02T05:49:21;3.50;99.90
4651;DHT22;2338;49.602;8.722;2024-03-02T05:52:06;3.50;99.90
4651;DHT22;2338;49.602;8.722;2024-03-02T05:54:52;3.50;99.90
4651;DHT22;2338;49.602;8.722;2024-03-02T05:57:40;3.60;99.90
4651;DHT22;2338;49.602;8.722;2024-03-02T06:00:39;3.60;99.90
4651;DHT22;2338;49.602;8.722;2024-03-02T06:03:25;3.60;99.90
4651;DHT22;2338;49.602;8.722;2024-03-02T06:06:12;3.60;99.90
4651;DHT22;2338;49.602;8.722;2024-03-02T06:08:58;3.50;99.90
4651;DHT22;2338;49.602;8.722;2024-03-02T06:11:43;3.50;99.90
4651;DHT22;2338;49.602;8.722;2024-03-02T06:14:30;3.50;99.90
4651;DHT22;2338;49.602;8.722;2024-03-02T06:17:16;3.60;99.90
4651;DHT22;2338;49.602;8.722;2024-03-02T06:20:02;3.60;99.90
4651;DHT22;2338;49.602;8.722;2024-03-02T06:22:47;3.70;99.90
4651;DHT22;2338;49.602;8.722;2024-03-02T06:25:33;3.60;99.90
4651;DHT22;2338;49.602;8.722;2024-03-02T06:28:19;3.60;99.90
4651;DHT22;2338;49.602;8.722;2024-03-02T06:31:06;3.60;99.90
4651;DHT22;2338;49.602;8.722;2024-03-02T06:33:52;3.60;99.90
4651;DHT22;2338;49.602;8.722;2024-03-02T06:36:39;3.60;99.90
4651;DHT22;2338;49.602;8.722;2024-03-02T06:39:25;3.50;99.90
4651;DHT22;2338;49.602;8.722;2024-03-02T06:42:11;3.40;99.90
4651;DHT22;2338;49.602;8.722;2024-03-02T06:44:56;3.40;99.90
4651;DHT22;2338;49.602;8.722;2024-03-02T06:47:43;3.50;99.90
4651;DHT22;2338;49.602;8.722;2024-03-02T06:50:29;3.50;99.90
4651;DHT22;2338;49.602;8.722;2024-03-02T06:53:16;3.50;99.90
4651;DHT22;2338;49.602;8.722;2024-03-02T06:56:02;3.50;99.90
4651;DHT22;2338;49.602;8.722;2024-03-02T06:58:49;3.50;99.90
4651;DHT22;2338;49.602;8.722;2024-03-02T07:01:34;3.60;99.90
4651;DHT22;2338;49.602;8.722;2024-03-02T07:04:21;3.60;99.90
4651;DHT22;2338;49.602;8.722;2024-03-02T07:07:07;3.60;99.90
4651;DHT22;2338;49.602;8.722;2024-03-02T07:09:53;3.60;99.90
4651;DHT22;2338;49.602;8.722;2024-03-02T07:12:38;3.50;99.90
4651;DHT22;2338;49.602;8.722;2024-03-02T07:15:25;3.50;99.90
4651;DHT22;2338;49.602;8.722;2024-03-02T07:18:27;3.60;99.90
4651;DHT22;2338;49.602;8.722;2024-03-02T07:21:14;3.50;99.90
4651;DHT22;2338;49.602;8.722;2024-03-02T07:23:59;3.60;99.90
4651;DHT22;2338;49.602;8.722;2024-03-02T07:26:47;3.60;99.90
4651;DHT22;2338;49.602;8.722;2024-03-02T07:29:33;3.50;99.90
4651;DHT22;2338;49.602;8.722;2024-03-02T07:32:18;3.60;99.90
4651;DHT22;2338;49.602;8.722;2024-03-02T07:35:05;3.60;99.90
4651;DHT22;2338;49.602;8.722;2024-03-02T07:37:53;3.60;99.90
4651;DHT22;2338;49.602;8.722;2024-03-02T07:40:38;3.70;99.90
4651;DHT22;2338;49.602;8.722;2024-03-02T07:43:25;3.70;99.90
4651;DHT22;2338;49.602;8.722;2024-03-02T07:46:10;3.70;99.90
4651;DHT22;2338;49.602;8.722;2024-03-02T07:48:56;3.80;99.90
4651;DHT22;2338;49.602;8.722;2024-03-02T07:51:41;3.80;99.90
4651;DHT22;2338;49.602;8.722;2024-03-02T07:54:28;3.90;99.90
4651;DHT22;2338;49.602;8.722;2024-03-02T07:57:14;4.00;99.90
4651;DHT22;2338;49.602;8.722;2024-03-02T08:00:00;4.20;99.90
4651;DHT22;2338;49.602;8.722;2024-03-02T08:02:46;4.30;99.90
4651;DHT22;2338;49.602;8.722;2024-03-02T08:05:31;4.50;99.90
4651;DHT22;2338;49.602;8.722;2024-03-02T08:08:17;4.70;99.90
4651;DHT22;2338;49.602;8.722;2024-03-02T08:11:04;4.90;99.90
4651;DHT22;2338;49.602;8.722;2024-03-02T08:13:50;5.10;99.90
4651;DHT22;2338;49.602;8.722;2024-03-02T08:16:36;5.30;99.90
4651;DHT22;2338;49.602;8.722;2024-03-02T08:19:22;5.50;99.90
4651;DHT22;2338;49.602;8.722;2024-03-02T08:22:08;5.60;99.90
4651;DHT22;2338;49.602;8.722;2024-03-02T08:24:54;5.80;99.90
4651;DHT22;2338;49.602;8.722;2024-03-02T08:27:41;6.00;99.90
4651;DHT22;2338;49.602;8.722;2024-03-02T08:30:27;6.20;99.90
4651;DHT22;2338;49.602;8.722;2024-03-02T08:33:13;6.30;99.90
4651;DHT22;2338;49.602;8.722;2024-03-02T08:35:58;6.60;99.90
4651;DHT22;2338;49.602;8.722;2024-03-02T08:38:44;6.70;99.90
4651;DHT22;2338;49.602;8.722;2024-03-02T08:41:30;6.90;99.90
4651;DHT22;2338;49.602;8.722;2024-03-02T08:44:17;7.10;99.90
4651;DHT22;2338;49.602;8.722;2024-03-02T08:47:03;7.30;99.90
4651;DHT22;2338;49.602;8.722;2024-03-02T08:49:49;7.40;99.90
4651;DHT22;2338;49.602;8.722;2024-03-02T08:52:35;7.60;99.90
4651;DHT22;2338;49.602;8.722;2024-03-02T08:55:21;7.70;99.90
4651;DHT22;2338;49.602;8.722;2024-03-02T08:58:07;7.90;99.90
4651;DHT22;2338;49.602;8.722;2024-03-02T09:00:54;8.10;99.90
4651;DHT22;2338;49.602;8.722;2024-03-02T09:03:39;8.20;99.90
4651;DHT22;2338;49.602;8.722;2024-03-02T09:06:25;8.30;99.90
4651;DHT22;2338;49.602;8.722;2024-03-02T09:09:11;8.40;99.90
4651;DHT22;2338;49.602;8.722;2024-03-02T09:11:56;8.50;99.90
4651;DHT22;2338;49.602;8.722;2024-03-02T09:14:43;8.60;99.90
4651;DHT22;2338;49.602;8.722;2024-03-02T09:17:30;8.80;99.90
4651;DHT22;2338;49.602;8.722;2024-03-02T09:20:16;8.90;99.90
4651;DHT22;2338;49.602;8.722;2024-03-02T09:23:02;9.00;99.90
4651;DHT22;2338;49.602;8.722;2024-03-02T09:25:47;9.10;99.90
4651;DHT22;2338;49.602;8.722;2024-03-02T09:28:33;9.20;99.90
4651;DHT22;2338;49.602;8.722;2024-03-02T09:31:18;9.40;99.90
4651;DHT22;2338;49.602;8.722;2024-03-02T09:34:06;9.50;99.90
4651;DHT22;2338;49.602;8.722;2024-03-02T09:36:52;9.70;99.90
4651;DHT22;2338;49.602;8.722;2024-03-02T09:39:37;9.90;99.90
4651;DHT22;2338;49.602;8.722;2024-03-02T09:42:23;10.10;99.90
4651;DHT22;2338;49.602;8.722;2024-03-02T09:45:09;10.40;99.90
4651;DHT22;2338;49.602;8.722;2024-03-02T09:47:55;10.50;99.90
4651;DHT22;2338;49.602;8.722;2024-03-02T09:50:43;10.70;99.90
4651;DHT22;2338;49.602;8.722;2024-03-02T09:53:31;11.00;99.90
4651;DHT22;2338;49.602;8.722;2024-03-02T09:56:17;11.10;99.90
4651;DHT22;2338;49.602;8.722;2024-03-02T09:59:03;11.40;99.90
4651;DHT22;2338;49.602;8.722;2024-03-02T10:01:56;11.60;99.90
4651;DHT22;2338;49.602;8.722;2024-03-02T10:04:43;11.80;99.90
4651;DHT22;2338;49.602;8.722;2024-03-02T10:07:31;12.00;99.90
4651;DHT22;2338;49.602;8.722;2024-03-02T10:10:17;12.20;99.90
4651;DHT22;2338;49.602;8.722;2024-03-02T10:13:04;12.30;99.90
4651;DHT22;2338;49.602;8.722;2024-03-02T10:15:50;12.50;99.90
4651;DHT22;2338;49.602;8.722;2024-03-02T10:18:36;12.70;99.90
4651;DHT22;2338;49.602;8.722;2024-03-02T10:21:22;12.90;99.90
4651;DHT22;2338;49.602;8.722;2024-03-02T10:24:11;13.10;99.90
4651;DHT22;2338;49.602;8.722;2024-03-02T10:26:56;13.20;95.80
4651;DHT22;2338;49.602;8.722;2024-03-02T10:29:42;13.40;98.30
4651;DHT22;2338;49.602;8.722;2024-03-02T10:32:27;13.60;95.30
4651;DHT22;2338;49.602;8.722;2024-03-02T10:35:15;13.70;93.10
4651;DHT22;2338;49.602;8.722;2024-03-02T10:38:03;13.80;87.80
4651;DHT22;2338;49.602;8.722;2024-03-02T10:40:51;13.90;83.40
4651;DHT22;2338;49.602;8.722;2024-03-02T10:43:37;14.00;81.10
4651;DHT22;2338;49.602;8.722;2024-03-02T10:46:24;14.20;79.70
4651;DHT22;2338;49.602;8.722;2024-03-02T10:49:12;14.30;76.60
4651;DHT22;2338;49.602;8.722;2024-03-02T10:51:58;14.50;70.10
4651;DHT22;2338;49.602;8.722;2024-03-02T10:54:44;14.60;67.80
4651;DHT22;2338;49.602;8.722;2024-03-02T10:57:36;14.80;65.00
4651;DHT22;2338;49.602;8.722;2024-03-02T11:00:29;14.90;61.30
4651;DHT22;2338;49.602;8.722;2024-03-02T11:03:17;15.00;59.40
4651;DHT22;2338;49.602;8.722;2024-03-02T11:06:03;15.10;56.00
4651;DHT22;2338;49.602;8.722;2024-03-02T11:08:52;15.30;57.60
4651;DHT22;2338;49.602;8.722;2024-03-02T11:11:43;15.40;40.10
4651;DHT22;2338;49.602;8.722;2024-03-02T11:14:31;15.60;33.30
4651;DHT22;2338;49.602;8.722;2024-03-02T11:17:18;15.60;37.50
4651;DHT22;2338;49.602;8.722;2024-03-02T11:20:05;15.70;32.60
4651;DHT22;2338;49.602;8.722;2024-03-02T11:22:53;15.80;32.70
4651;DHT22;2338;49.602;8.722;2024-03-02T11:25:39;15.90;28.70
4651;DHT22;2338;49.602;8.722;2024-03-02T11:28:35;15.90;24.80
4651;DHT22;2338;49.602;8.722;2024-03-02T11:31:22;15.90;26.40
4651;DHT22;2338;49.602;8.722;2024-03-02T11:34:31;16.00;26.80
4651;DHT22;2338;49.602;8.722;2024-03-02T11:37:18;16.10;25.30
4651;DHT22;2338;49.602;8.722;2024-03-02T11:40:06;16.10;26.50
4651;DHT22;2338;49.602;8.722;2024-03-02T11:42:54;16.10;26.40
4651;DHT22;2338;49.602;8.722;2024-03-02T11:45:42;16.30;26.50
4651;DHT22;2338;49.602;8.722;2024-03-02T11:48:30;16.10;25.50
4651;DHT22;2338;49.602;8.722;2024-03-02T11:51:16;16.20;28.70
4651;DHT22;2338;49.602;8.722;2024-03-02T11:54:03;16.30;25.10
4651;DHT22;2338;49.602;8.722;2024-03-02T11:56:49;16.40;25.50
4651;DHT22;2338;49.602;8.722;2024-03-02T11:59:35;16.50;25.20
4651;DHT22;2338;49.602;8.722;2024-03-02T12:02:21;16.70;24.90
4651;DHT22;2338;49.602;8.722;2024-03-02T12:05:09;16.70;28.10
4651;DHT22;2338;49.602;8.722;2024-03-02T12:07:56;16.80;27.00
4651;DHT22;2338;49.602;8.722;2024-03-02T12:10:43;16.80;27.50
4651;DHT22;2338;49.602;8.722;2024-03-02T12:13:29;16.80;27.50
4651;DHT22;2338;49.602;8.722;2024-03-02T12:16:23;16.90;26.40
4651;DHT22;2338;49.602;8.722;2024-03-02T12:19:09;17.00;24.50
4651;DHT22;2338;49.602;8.722;2024-03-02T12:21:57;17.20;24.10
4651;DHT22;2338;49.602;8.722;2024-03-02T12:24:44;17.30;22.30
4651;DHT22;2338;49.602;8.722;2024-03-02T12:27:30;17.40;23.70
4651;DHT22;2338;49.602;8.722;2024-03-02T12:30:17;17.50;20.80
4651;DHT22;2338;49.602;8.722;2024-03-02T12:33:05;17.60;19.80
4651;DHT22;2338;49.602;8.722;2024-03-02T12:35:51;17.70;20.40
4651;DHT22;2338;49.602;8.722;2024-03-02T12:38:43;17.80;20.70
4651;DHT22;2338;49.602;8.722;2024-03-02T12:41:29;17.80;18.80
4651;DHT22;2338;49.602;8.722;2024-03-02T12:44:14;17.70;18.80
4651;DHT22;2338;49.602;8.722;2024-03-02T12:47:00;17.70;19.80
4651;DHT22;2338;49.602;8.722;2024-03-02T12:49:46;17.70;21.70
4651;DHT22;2338;49.602;8.722;2024-03-02T12:52:31;17.80;19.30
4651;DHT22;2338;49.602;8.722;2024-03-02T12:55:20;17.90;20.60
4651;DHT22;2338;49.602;8.722;2024-03-02T12:58:06;18.00;19.30
4651;DHT22;2338;49.602;8.722;2024-03-02T13:01:05;18.10;17.40
4651;DHT22;2338;49.602;8.722;2024-03-02T13:03:52;18.10;16.70
4651;DHT22;2338;49.602;8.722;2024-03-02T13:06:39;18.00;16.60
4651;DHT22;2338;49.602;8.722;2024-03-02T13:09:26;18.10;16.80
4651;DHT22;2338;49.602;8.722;2024-03-02T13:12:18;18.00;16.50
4651;DHT22;2338;49.602;8.722;2024-03-02T13:15:05;18.00;16.90
4651;DHT22;2338;49.602;8.722;2024-03-02T13:17:50;18.00;17.10
4651;DHT22;2338;49.602;8.722;2024-03-02T13:20:36;17.90;15.40
4651;DHT22;2338;49.602;8.722;2024-03-02T13:23:23;18.00;15.20
4651;DHT22;2338;49.602;8.722;2024-03-02T13:26:09;18.00;18.10
4651;DHT22;2338;49.602;8.722;2024-03-02T13:29:01;18.00;15.20
4651;DHT22;2338;49.602;8.722;2024-03-02T13:31:51;17.80;16.40
4651;DHT22;2338;49.602;8.722;2024-03-02T13:34:37;17.60;17.20
4651;DHT22;2338;49.602;8.722;2024-03-02T13:37:23;17.40;17.50
4651;DHT22;2338;49.602;8.722;2024-03-02T13:40:09;17.10;16.60
4651;DHT22;2338;49.602;8.722;2024-03-02T13:42:58;16.90;18.20
4651;DHT22;2338;49.602;8.722;2024-03-02T13:45:45;16.90;19.70
4651;DHT22;2338;49.602;8.722;2024-03-02T13:48:31;17.10;19.50
4651;DHT22;2338;49.602;8.722;2024-03-02T13:51:17;17.10;16.60
4651;DHT22;2338;49.602;8.722;2024-03-02T13:54:03;17.20;19.40
4651;DHT22;2338;49.602;8.722;2024-03-02T13:56:49;17.20;17.10
4651;DHT22;2338;49.602;8.722;2024-03-02T13:59:40;17.40;16.70
4651;DHT22;2338;49.602;8.722;2024-03-02T14:02:27;17.50;18.00
4651;DHT22;2338;49.602;8.722;2024-03-02T14:05:12;17.80;18.00
4651;DHT22;2338;49.602;8.722;2024-03-02T14:07:58;18.10;16.00
4651;DHT22;2338;49.602;8.722;2024-03-02T14:10:45;18.20;15.90
4651;DHT22;2338;49.602;8.722;2024-03-02T14:13:30;17.90;15.80
4651;DHT22;2338;49.602;8.722;2024-03-02T14:16:29;17.70;16.60
4651;DHT22;2338;49.602;8.722;2024-03-02T14:19:16;17.80;16.00
4651;DHT22;2338;49.602;8.722;2024-03-02T14:22:02;18.00;15.90
4651;DHT22;2338;49.602;8.722;2024-03-02T14:24:49;18.10;15.20
4651;DHT22;2338;49.602;8.722;2024-03-02T14:27:35;18.20;16.10
4651;DHT22;2338;49.602;8.722;2024-03-02T14:30:21;18.40;14.90
4651;DHT22;2338;49.602;8.722;2024-03-02T14:33:07;18.40;15.70
4651;DHT22;2338;49.602;8.722;2024-03-02T14:36:07;18.30;15.00
4651;DHT22;2338;49.602;8.722;2024-03-02T14:38:53;18.30;15.80
4651;DHT22;2338;49.602;8.722;2024-03-02T14:41:39;18.10;15.60
4651;DHT22;2338;49.602;8.722;2024-03-02T14:44:25;17.90;15.70
4651;DHT22;2338;49.602;8.722;2024-03-02T14:47:11;17.60;15.60
4651;DHT22;2338;49.602;8.722;2024-03-02T14:49:57;17.30;16.40
4651;DHT22;2338;49.602;8.722;2024-03-02T14:52:45;17.20;17.90
4651;DHT22;2338;49.602;8.722;2024-03-02T14:55:31;17.00;17.60
4651;DHT22;2338;49.602;8.722;2024-03-02T14:58:17;17.20;17.40
4651;DHT22;2338;49.602;8.722;2024-03-02T15:01:03;17.20;18.20
4651;DHT22;2338;49.602;8.722;2024-03-02T15:03:50;17.00;18.10
4651;DHT22;2338;49.602;8.722;2024-03-02T15:06:35;16.90;18.30
4651;DHT22;2338;49.602;8.722;2024-03-02T15:09:22;17.00;18.10
4651;DHT22;2338;49.602;8.722;2024-03-02T15:12:08;17.30;17.90
4651;DHT22;2338;49.602;8.722;2024-03-02T15:14:56;17.80;16.60
4651;DHT22;2338;49.602;8.722;2024-03-02T15:17:42;18.70;14.50
4651;DHT22;2338;49.602;8.722;2024-03-02T15:20:28;19.50;11.90
4651;DHT22;2338;49.602;8.722;2024-03-02T15:23:14;20.00;10.90
4651;DHT22;2338;49.602;8.722;2024-03-02T15:26:01;20.10;10.40
4651;DHT22;2338;49.602;8.722;2024-03-02T15:28:47;19.90;11.10
4651;DHT22;2338;49.602;8.722;2024-03-02T15:31:32;19.70;11.60
4651;DHT22;2338;49.602;8.722;2024-03-02T15:34:18;19.10;12.40
4651;DHT22;2338;49.602;8.722;2024-03-02T15:37:04;18.60;13.80
4651;DHT22;2338;49.602;8.722;2024-03-02T15:39:50;18.00;15.60
4651;DHT22;2338;49.602;8.722;2024-03-02T15:42:37;17.40;18.20
4651;DHT22;2338;49.602;8.722;2024-03-02T15:45:22;16.90;19.10
4651;DHT22;2338;49.602;8.722;2024-03-02T15:48:08;16.40;20.80
4651;DHT22;2338;49.602;8.722;2024-03-02T15:50:54;16.00;25.60
4651;DHT22;2338;49.602;8.722;2024-03-02T15:53:40;15.70;28.10
4651;DHT22;2338;49.602;8.722;2024-03-02T15:56:26;15.50;31.50
4651;DHT22;2338;49.602;8.722;2024-03-02T15:59:13;15.20;39.20
4651;DHT22;2338;49.602;8.722;2024-03-02T16:01:59;14.90;47.90
4651;DHT22;2338;49.602;8.722;2024-03-02T16:04:45;14.70;53.30
4651;DHT22;2338;49.602;8.722;2024-03-02T16:07:30;14.40;59.30
4651;DHT22;2338;49.602;8.722;2024-03-02T16:10:17;14.20;66.10
4651;DHT22;2338;49.602;8.722;2024-03-02T16:13:03;14.00;68.30
4651;DHT22;2338;49.602;8.722;2024-03-02T16:15:50;13.90;71.20
4651;DHT22;2338;49.602;8.722;2024-03-02T16:18:36;13.80;72.90
4651;DHT22;2338;49.602;8.722;2024-03-02T16:21:21;13.60;77.40
4651;DHT22;2338;49.602;8.722;2024-03-02T16:24:09;13.40;78.50
4651;DHT22;2338;49.602;8.722;2024-03-02T16:26:55;13.20;82.10
4651;DHT22;2338;49.602;8.722;2024-03-02T16:29:41;13.10;84.80
4651;DHT22;2338;49.602;8.722;2024-03-02T16:32:28;12.90;86.00
4651;DHT22;2338;49.602;8.722;2024-03-02T16:35:13;12.80;89.30
4651;DHT22;2338;49.602;8.722;2024-03-02T16:37:59;12.60;91.20
4651;DHT22;2338;49.602;8.722;2024-03-02T16:40:45;12.50;91.90
4651;DHT22;2338;49.602;8.722;2024-03-02T16:43:32;12.30;92.80
4651;DHT22;2338;49.602;8.722;2024-03-02T16:46:18;12.10;93.90
4651;DHT22;2338;49.602;8.722;2024-03-02T16:49:05;12.00;93.40
4651;DHT22;2338;49.602;8.722;2024-03-02T16:51:50;12.00;94.60
4651;DHT22;2338;49.602;8.722;2024-03-02T16:54:36;12.00;94.30
4651;DHT22;2338;49.602;8.722;2024-03-02T16:57:22;11.90;95.70
4651;DHT22;2338;49.602;8.722;2024-03-02T17:00:08;11.80;97.80
4651;DHT22;2338;49.602;8.722;2024-03-02T17:02:54;11.60;97.90
4651;DHT22;2338;49.602;8.722;2024-03-02T17:05:41;11.50;99.90
4651;DHT22;2338;49.602;8.722;2024-03-02T17:08:27;11.50;99.90
4651;DHT22;2338;49.602;8.722;2024-03-02T17:11:13;11.40;99.90
4651;DHT22;2338;49.602;8.722;2024-03-02T17:13:59;11.40;99.90
4651;DHT22;2338;49.602;8.722;2024-03-02T17:16:44;11.30;99.90
4651;DHT22;2338;49.602;8.722;2024-03-02T17:19:30;11.30;99.90
4651;DHT22;2338;49.602;8.722;2024-03-02T17:22:18;11.20;99.90
4651;DHT22;2338;49.602;8.722;2024-03-02T17:25:04;11.10;99.90
4651;DHT22;2338;49.602;8.722;2024-03-02T17:27:50;11.10;99.90
4651;DHT22;2338;49.602;8.722;2024-03-02T17:30:36;11.00;99.90
4651;DHT22;2338;49.602;8.722;2024-03-02T17:33:21;10.90;99.90
4651;DHT22;2338;49.602;8.722;2024-03-02T17:36:07;10.90;99.90
4651;DHT22;2338;49.602;8.722;2024-03-02T17:38:54;10.90;99.90
4651;DHT22;2338;49.602;8.722;2024-03-02T17:41:40;10.80;99.90
4651;DHT22;2338;49.602;8.722;2024-03-02T17:44:26;10.80;99.90
4651;DHT22;2338;49.602;8.722;2024-03-02T17:47:12;10.80;99.90
4651;DHT22;2338;49.602;8.722;2024-03-02T17:49:57;10.60;99.90
4651;DHT22;2338;49.602;8.722;2024-03-02T17:52:43;10.60;99.90
4651;DHT22;2338;49.602;8.722;2024-03-02T17:55:30;10.60;99.90
4651;DHT22;2338;49.602;8.722;2024-03-02T17:58:16;10.60;99.90
4651;DHT22;2338;49.602;8.722;2024-03-02T18:01:02;10.60;99.90
4651;DHT22;2338;49.602;8.722;2024-03-02T18:03:48;10.50;99.90
4651;DHT22;2338;49.602;8.722;2024-03-02T18:06:33;10.50;99.90
4651;DHT22;2338;49.602;8.722;2024-03-02T18:09:19;10.60;99.90
4651;DHT22;2338;49.602;8.722;2024-03-02T18:12:07;10.50;99.90
4651;DHT22;2338;49.602;8.722;2024-03-02T18:14:52;10.50;99.90
4651;DHT22;2338;49.602;8.722;2024-03-02T18:17:39;10.50;99.90